Time;durP1;ratioP1;P1;durP2;ratioP2;P2;SDS_P1;SDS_P2;PMS_P1;PMS_P2;Temp;Humidity;BMP_temperature;BMP_pressure;BME280_temperature;BME280_humidity;BME280_pressure;Samples;Min_cycle;Max_cycle;Signal;HPM_P1;HPM_P2
2020/12/27 00:01:40;;;;;;;16.88;5.60;;;-2.30;85.80;;;;;;4975252;28;20113;-86
2020/12/27 00:04:07;;;;;;;11.40;5.22;;;-2.30;85.70;;;;;;4958903;28;20569;-86
2020/12/27 00:06:32;;;;;;;12.02;5.15;;;-2.40;85.50;;;;;;4975488;28;20030;-87
2020/12/27 00:08:58;;;;;;;16.05;5.90;;;-2.40;85.70;;;;;;4977587;28;20027;-87
2020/12/27 00:11:24;;;;;;;12.57;5.30;;;-2.40;85.70;;;;;;4986119;28;20058;-88
2020/12/27 00:13:50;;;;;;;11.70;4.85;;;-2.50;85.70;;;;;;5008390;28;20026;-87
2020/12/27 00:16:22;;;;;;;10.15;4.40;;;-2.40;85.90;;;;;;5004248;28;20069;-86
2020/12/27 00:18:48;;;;;;;11.30;5.10;;;-2.50;85.70;;;;;;4977162;28;20081;-87
2020/12/27 00:21:14;;;;;;;11.30;4.65;;;-2.50;85.70;;;;;;4976844;28;20047;-87
2020/12/27 00:23:39;;;;;;;14.00;5.68;;;-2.50;85.70;;;;;;4981851;28;20027;-86
2020/12/27 00:26:13;;;;;;;14.77;6.00;;;-2.60;85.70;;;;;;4977869;28;20508;-87
2020/12/27 00:28:39;;;;;;;11.63;4.47;;;-2.50;85.70;;;;;;4974789;28;20113;-87
2020/12/27 00:31:05;;;;;;;15.95;5.35;;;-2.60;85.60;;;;;;4974714;28;20029;-87
2020/12/27 00:33:32;;;;;;;12.50;4.47;;;-2.60;85.60;;;;;;4974446;28;20027;-87
2020/12/27 00:35:58;;;;;;;10.73;4.30;;;-2.60;85.70;;;;;;4981601;28;20089;-88
2020/12/27 00:38:23;;;;;;;7.90;3.53;;;-2.70;85.60;;;;;;4974339;28;20022;-88
2020/12/27 00:40:49;;;;;;;12.05;4.90;;;-2.70;85.80;;;;;;4978457;28;20038;-88
2020/12/27 00:43:15;;;;;;;10.57;5.07;;;-2.70;85.90;;;;;;4997901;28;20054;-88
2020/12/27 00:45:40;;;;;;;10.63;4.13;;;-2.70;85.90;;;;;;4972804;28;20035;-88
2020/12/27 00:48:06;;;;;;;9.60;3.97;;;-2.70;86.00;;;;;;4990615;28;20026;-87
2020/12/27 00:50:32;;;;;;;13.48;4.72;;;-2.70;86.20;;;;;;4978939;28;20475;-88
2020/12/27 00:52:58;;;;;;;11.77;4.78;;;-2.60;86.40;;;;;;4959455;28;20034;-88
2020/12/27 00:55:25;;;;;;;11.00;4.30;;;-2.60;86.10;;;;;;4957777;28;20427;-88
2020/12/27 00:57:51;;;;;;;11.93;5.03;;;-2.70;85.90;;;;;;4974203;28;20027;-88
2020/12/27 01:00:16;;;;;;;14.55;4.53;;;-2.70;85.90;;;;;;4975036;28;20118;-88
2020/12/27 01:02:42;;;;;;;11.75;4.85;;;-2.70;86.60;;;;;;4987469;28;20043;-88
2020/12/27 01:05:08;;;;;;;10.65;4.20;;;-2.70;85.90;;;;;;4992794;28;20035;-87
2020/12/27 01:07:34;;;;;;;11.38;3.95;;;-2.80;85.80;;;;;;4984862;28;20138;-87
2020/12/27 01:10:00;;;;;;;14.15;4.03;;;-2.80;86.00;;;;;;4994046;28;20110;-87
2020/12/27 01:12:25;;;;;;;9.02;3.58;;;-2.80;86.00;;;;;;4973829;28;20023;-87
2020/12/27 01:14:52;;;;;;;10.70;4.20;;;-2.80;85.90;;;;;;4973916;28;20558;-87
2020/12/27 01:17:17;;;;;;;8.43;3.15;;;-2.80;86.00;;;;;;4963142;28;20034;-87
2020/12/27 01:19:43;;;;;;;11.65;4.90;;;-2.80;86.20;;;;;;4980776;28;20050;-87
2020/12/27 01:22:09;;;;;;;12.88;4.63;;;-2.70;86.50;;;;;;4999609;28;20058;-86
2020/12/27 01:24:34;;;;;;;12.60;4.97;;;-2.70;86.20;;;;;;4982297;28;20026;-89
2020/12/27 01:27:00;;;;;;;10.75;4.50;;;-2.80;85.90;;;;;;4957639;28;20121;-89
2020/12/27 01:29:25;;;;;;;11.30;4.80;;;-2.80;85.90;;;;;;4957448;28;20486;-88
2020/12/27 01:31:52;;;;;;;7.53;3.40;;;-2.80;85.90;;;;;;4975460;28;20050;-88
2020/12/27 01:34:17;;;;;;;10.68;3.42;;;-2.80;85.80;;;;;;4974135;28;20487;-88
2020/12/27 01:36:43;;;;;;;10.65;3.90;;;-2.80;86.70;;;;;;4994612;28;20041;-88
2020/12/27 01:39:09;;;;;;;11.75;4.30;;;-2.80;86.10;;;;;;4968928;28;20537;-88
2020/12/27 01:41:35;;;;;;;11.25;3.67;;;-2.80;86.00;;;;;;4975676;28;20081;-88
2020/12/27 01:44:02;;;;;;;8.10;3.33;;;-2.90;86.00;;;;;;4996631;28;20078;-88
2020/12/27 01:46:36;;;;;;;10.93;3.90;;;-2.90;86.80;;;;;;4989330;28;20034;-88
2020/12/27 01:49:03;;;;;;;9.48;4.18;;;-2.90;86.10;;;;;;4972967;28;20106;-87
2020/12/27 01:51:28;;;;;;;10.30;4.35;;;-2.90;86.00;;;;;;4973004;28;20049;-87
2020/12/27 01:53:54;;;;;;;10.70;3.95;;;-2.90;86.00;;;;;;4971052;28;20495;-88
2020/12/27 01:56:27;;;;;;;13.73;4.40;;;-2.90;86.00;;;;;;4973031;28;20038;-88
2020/12/27 01:59:24;;;;;;;9.55;3.35;;;-2.90;86.00;;;;;;4975768;28;20106;-87
2020/12/27 02:01:49;;;;;;;8.98;3.75;;;-3.00;85.90;;;;;;4969429;28;20442;-87
2020/12/27 02:04:15;;;;;;;8.55;3.75;;;-3.00;86.00;;;;;;4993573;28;20109;-87
2020/12/27 02:06:41;;;;;;;7.72;3.67;;;-3.00;86.10;;;;;;4976628;28;20506;-87
2020/12/27 02:09:07;;;;;;;16.60;4.68;;;-2.90;86.30;;;;;;4972955;28;20097;-88
2020/12/27 02:11:33;;;;;;;12.27;4.60;;;-2.90;86.30;;;;;;4973881;28;20047;-88
2020/12/27 02:13:59;;;;;;;10.90;3.45;;;-2.90;86.50;;;;;;4974972;28;20023;-88
2020/12/27 02:16:29;;;;;;;9.93;3.33;;;-2.80;86.50;;;;;;4990751;28;20074;-89
2020/12/27 02:18:57;;;;;;;8.52;3.22;;;-2.80;86.40;;;;;;4974083;28;20023;-88
2020/12/27 02:21:23;;;;;;;10.40;3.17;;;-2.80;86.40;;;;;;4976466;28;20046;-89
2020/12/27 02:23:54;;;;;;;7.78;2.88;;;-2.70;86.70;;;;;;4971145;28;20032;-88
2020/12/27 02:26:20;;;;;;;10.00;4.10;;;-2.70;86.70;;;;;;4972897;28;20128;-88
2020/12/27 02:28:45;;;;;;;7.80;3.47;;;-2.70;86.60;;;;;;4995132;28;20487;-88
2020/12/27 02:31:11;;;;;;;9.82;4.45;;;-2.60;87.00;;;;;;4958212;28;20031;-88
2020/12/27 02:33:37;;;;;;;15.02;5.25;;;-2.60;86.80;;;;;;4959059;28;20048;-89
2020/12/27 02:36:02;;;;;;;8.02;3.65;;;-2.50;86.80;;;;;;4956490;28;20042;-89
2020/12/27 02:38:28;;;;;;;9.68;3.95;;;-2.50;86.80;;;;;;4971909;28;20034;-89
2020/12/27 02:40:54;;;;;;;6.78;2.28;;;-2.50;87.40;;;;;;4979685;28;20031;-88
2020/12/27 02:43:20;;;;;;;11.45;4.70;;;-2.40;86.90;;;;;;4992930;28;20090;-87
2020/12/27 02:45:47;;;;;;;6.10;2.97;;;-2.40;87.00;;;;;;4972703;28;20039;-87
2020/12/27 02:48:13;;;;;;;8.32;3.63;;;-2.40;86.90;;;;;;4975030;28;20081;-88
2020/12/27 02:50:38;;;;;;;9.57;4.28;;;-2.30;87.00;;;;;;4974200;28;20430;-88
2020/12/27 02:53:04;;;;;;;8.23;3.65;;;-2.30;86.90;;;;;;4972560;28;20027;-88
2020/12/27 02:55:31;;;;;;;5.95;2.90;;;-2.30;86.70;;;;;;4973622;28;20054;-87
2020/12/27 02:57:57;;;;;;;7.40;3.42;;;-2.30;86.80;;;;;;4972396;28;20026;-88
2020/12/27 03:00:23;;;;;;;9.23;3.90;;;-2.30;86.90;;;;;;4972075;28;20026;-88
2020/12/27 03:02:48;;;;;;;11.25;4.18;;;-2.30;86.70;;;;;;4972217;28;20391;-87
2020/12/27 03:05:14;;;;;;;7.60;3.63;;;-2.30;86.70;;;;;;4978338;28;20107;-87
2020/12/27 03:07:40;;;;;;;8.43;3.78;;;-2.20;86.70;;;;;;4990598;28;20486;-87
2020/12/27 03:10:05;;;;;;;10.45;4.35;;;-2.20;86.70;;;;;;4973620;28;20035;-87
2020/12/27 03:12:31;;;;;;;9.32;3.72;;;-2.20;86.70;;;;;;4988266;28;20034;-87
2020/12/27 03:14:57;;;;;;;11.68;4.28;;;-2.20;86.70;;;;;;4956026;28;20026;-87
2020/12/27 03:17:22;;;;;;;7.75;3.38;;;-2.20;86.70;;;;;;4971608;28;20038;-88
2020/12/27 03:19:48;;;;;;;11.85;4.07;;;-2.20;86.70;;;;;;4991982;28;20023;-88
2020/12/27 03:22:14;;;;;;;9.73;3.45;;;-2.20;86.70;;;;;;4971249;28;20054;-88
2020/12/27 03:24:40;;;;;;;8.85;2.80;;;-2.20;86.70;;;;;;4979487;28;20035;-88
2020/12/27 03:27:06;;;;;;;9.52;3.75;;;-2.30;86.70;;;;;;4998098;28;20376;-87
2020/12/27 03:29:31;;;;;;;6.40;3.20;;;-2.20;86.70;;;;;;4975676;28;20031;-88
2020/12/27 03:31:57;;;;;;;12.02;3.92;;;-2.20;86.70;;;;;;4977154;28;20031;-88
2020/12/27 03:34:22;;;;;;;8.48;3.42;;;-2.20;86.70;;;;;;4980585;28;20078;-88
2020/12/27 03:36:48;;;;;;;7.93;3.40;;;-2.20;86.80;;;;;;4972326;28;20054;-88
2020/12/27 03:39:14;;;;;;;8.43;3.83;;;-2.20;86.70;;;;;;4996073;28;20054;-88
2020/12/27 03:41:41;;;;;;;7.13;3.22;;;-2.20;86.70;;;;;;4975079;28;20058;-88
2020/12/27 03:44:07;;;;;;;8.27;3.20;;;-2.20;87.30;;;;;;4978344;28;20023;-88
2020/12/27 03:46:32;;;;;;;7.57;3.88;;;-2.20;86.60;;;;;;4976521;28;20081;-88
2020/12/27 03:48:58;;;;;;;9.70;3.85;;;-2.20;86.50;;;;;;4976573;28;20023;-88
2020/12/27 03:51:24;;;;;;;7.95;3.63;;;-2.20;86.50;;;;;;4980796;28;20027;-88
2020/12/27 03:53:49;;;;;;;8.23;3.22;;;-2.20;86.50;;;;;;4948057;28;20038;-88
2020/12/27 03:56:15;;;;;;;7.65;3.20;;;-2.20;86.40;;;;;;4983927;28;20510;-88
2020/12/27 03:58:41;;;;;;;5.13;2.35;;;-2.30;86.40;;;;;;4995073;28;20104;-87
2020/12/27 04:01:06;;;;;;;7.95;2.95;;;-2.30;86.80;;;;;;4991432;28;20031;-88
2020/12/27 04:03:32;;;;;;;7.07;3.25;;;-2.30;86.10;;;;;;4996193;28;20019;-88
2020/12/27 04:05:57;;;;;;;7.63;3.35;;;-2.40;86.10;;;;;;4994016;28;20027;-87
2020/12/27 04:08:23;;;;;;;8.65;2.85;;;-2.40;86.10;;;;;;4974331;28;20029;-87
2020/12/27 04:10:48;;;;;;;6.28;2.70;;;-2.40;86.20;;;;;;4979869;28;20037;-87
2020/12/27 04:13:14;;;;;;;6.78;2.95;;;-2.40;86.30;;;;;;4963889;28;20078;-88
2020/12/27 04:15:41;;;;;;;9.90;3.42;;;-2.50;86.20;;;;;;4998468;28;20458;-93
2020/12/27 04:18:06;;;;;;;7.57;3.28;;;-2.50;86.20;;;;;;4978971;28;20117;-88
2020/12/27 04:20:32;;;;;;;7.25;3.00;;;-2.50;86.20;;;;;;4977731;28;20483;-88
2020/12/27 04:22:58;;;;;;;7.75;3.15;;;-2.50;86.20;;;;;;4975669;28;20050;-88
2020/12/27 04:25:24;;;;;;;7.20;2.70;;;-2.50;86.20;;;;;;4980710;28;20026;-87
2020/12/27 04:27:50;;;;;;;10.15;3.28;;;-2.50;86.20;;;;;;4977081;28;20035;-88
2020/12/27 04:30:16;;;;;;;7.60;3.33;;;-2.50;86.30;;;;;;4976156;28;20034;-87
2020/12/27 04:32:41;;;;;;;9.07;3.13;;;-2.50;86.30;;;;;;4975774;28;20031;-88
2020/12/27 04:35:07;;;;;;;8.88;3.30;;;-2.60;86.10;;;;;;4973982;28;20484;-88
2020/12/27 04:37:32;;;;;;;10.35;3.60;;;-2.60;86.80;;;;;;4994762;28;20506;-87
2020/12/27 04:39:58;;;;;;;7.95;2.78;;;-2.60;86.20;;;;;;4978447;28;20030;-87
2020/12/27 04:42:24;;;;;;;9.25;3.33;;;-2.60;86.30;;;;;;4993677;28;20026;-88
2020/12/27 04:44:53;;;;;;;7.78;3.50;;;-2.60;87.00;;;;;;4974031;28;20030;-87
2020/12/27 04:47:19;;;;;;;8.63;3.30;;;-2.60;86.30;;;;;;4996118;28;20034;-87
2020/12/27 04:49:45;;;;;;;7.72;3.00;;;-2.60;86.30;;;;;;4995472;28;20037;-87
2020/12/27 04:52:11;;;;;;;11.45;3.65;;;-2.60;86.30;;;;;;4991827;28;20023;-87
2020/12/27 04:54:38;;;;;;;9.27;3.75;;;-2.60;86.30;;;;;;4957852;28;20127;-87
2020/12/27 04:57:04;;;;;;;8.50;3.58;;;-2.60;86.30;;;;;;4987788;28;20126;-87
2020/12/27 04:59:29;;;;;;;9.60;2.90;;;-2.60;86.30;;;;;;4975332;28;20102;-87
2020/12/27 05:01:55;;;;;;;5.75;2.65;;;-2.60;86.40;;;;;;4974057;28;20107;-87
2020/12/27 05:04:26;;;;;;;9.18;3.70;;;-2.60;86.40;;;;;;4993038;28;20483;-87
2020/12/27 05:06:55;;;;;;;5.97;2.70;;;-2.60;86.40;;;;;;4975742;28;20054;-87
2020/12/27 05:09:25;;;;;;;9.70;3.88;;;-2.70;86.40;;;;;;4980871;28;20034;-87
2020/12/27 05:11:52;;;;;;;8.52;3.50;;;-2.60;86.50;;;;;;4972708;28;20019;-88
2020/12/27 05:14:24;;;;;;;10.50;3.67;;;-2.60;86.50;;;;;;4975569;28;20034;-87
2020/12/27 05:16:54;;;;;;;10.35;4.10;;;-2.60;86.50;;;;;;4973873;28;20478;-87
2020/12/27 05:19:24;;;;;;;7.88;3.40;;;-2.60;86.50;;;;;;4978764;28;20027;-87
2020/12/27 05:21:50;;;;;;;7.43;2.85;;;-2.60;86.50;;;;;;4955151;28;20055;-88
2020/12/27 05:24:19;;;;;;;7.68;3.22;;;-2.60;86.50;;;;;;4993210;28;20449;-88
2020/12/27 05:26:46;;;;;;;7.72;3.13;;;-2.60;87.10;;;;;;4995465;28;20450;-88
2020/12/27 05:29:32;;;;;;;6.82;3.00;;;-2.60;86.50;;;;;;4995530;28;20427;-88
2020/12/27 05:31:59;;;;;;;10.00;4.15;;;-2.60;86.50;;;;;;4961691;28;20069;-87
2020/12/27 05:34:26;;;;;;;9.27;3.60;;;-2.60;86.50;;;;;;4974394;28;20018;-87
2020/12/27 05:36:52;;;;;;;8.43;3.70;;;-2.60;86.50;;;;;;4991029;28;20054;-87
2020/12/27 05:39:17;;;;;;;7.93;2.83;;;-2.60;86.50;;;;;;4994572;28;20537;-87
2020/12/27 05:41:43;;;;;;;6.40;2.88;;;-2.60;86.50;;;;;;4972721;28;20090;-88
2020/12/27 05:44:08;;;;;;;6.55;3.13;;;-2.60;86.50;;;;;;4993588;28;20031;-88
2020/12/27 05:46:34;;;;;;;12.60;3.58;;;-2.60;86.60;;;;;;4975736;28;20113;-88
2020/12/27 05:49:00;;;;;;;7.38;3.13;;;-2.60;86.60;;;;;;4988972;28;20046;-88
2020/12/27 05:51:26;;;;;;;12.48;3.97;;;-2.50;86.60;;;;;;4974527;28;20055;-88
2020/12/27 05:54:02;;;;;;;9.70;3.05;;;-2.60;86.50;;;;;;4975047;28;20073;-88
2020/12/27 05:56:29;;;;;;;6.93;3.00;;;-2.60;86.50;;;;;;4989274;28;20034;-87
2020/12/27 05:58:59;;;;;;;6.07;2.50;;;-2.60;86.50;;;;;;4982056;28;20475;-88
2020/12/27 06:01:25;;;;;;;8.73;3.65;;;-2.50;86.50;;;;;;4973369;28;20023;-88
2020/12/27 06:03:59;;;;;;;11.90;4.40;;;-2.50;86.50;;;;;;4972243;28;20026;-88
2020/12/27 06:06:34;;;;;;;6.43;3.03;;;-2.50;86.50;;;;;;4975969;28;20102;-87
2020/12/27 06:09:08;;;;;;;11.38;3.72;;;-2.50;86.60;;;;;;4988971;28;20030;-87
2020/12/27 06:11:45;;;;;;;10.20;4.22;;;-2.50;86.50;;;;;;4972799;28;20514;-87
2020/12/27 06:14:17;;;;;;;10.15;4.32;;;-2.60;86.50;;;;;;4974040;28;20081;-87
2020/12/27 06:16:45;;;;;;;4.75;2.45;;;-2.60;86.50;;;;;;4992282;28;20493;-87
2020/12/27 06:19:26;;;;;;;8.98;4.10;;;-2.60;86.50;;;;;;4989024;28;20023;-87
2020/12/27 06:22:08;;;;;;;8.13;3.40;;;-2.60;86.50;;;;;;4994493;28;20039;-87
2020/12/27 06:24:38;;;;;;;6.60;3.15;;;-2.60;86.50;;;;;;4973712;28;20028;-87
2020/12/27 06:27:05;;;;;;;10.25;4.30;;;-2.60;86.50;;;;;;4973511;28;20026;-87
2020/12/27 06:29:36;;;;;;;6.22;2.78;;;-2.60;86.50;;;;;;4978730;28;20027;-90
2020/12/27 06:32:05;;;;;;;9.90;3.88;;;-2.60;86.60;;;;;;4972611;28;20479;-88
2020/12/27 06:34:31;;;;;;;9.25;3.90;;;-2.60;87.00;;;;;;4972393;28;20387;-88
2020/12/27 06:36:58;;;;;;;6.53;2.45;;;-2.50;87.10;;;;;;4985764;28;20042;-88
2020/12/27 06:39:29;;;;;;;6.75;3.08;;;-2.50;87.00;;;;;;4988451;28;20054;-87
2020/12/27 06:42:15;;;;;;;10.52;4.13;;;-2.40;87.00;;;;;;4999475;28;20030;-93
2020/12/27 06:44:41;;;;;;;12.23;5.28;;;-2.50;86.80;;;;;;4973831;28;20062;-94
2020/12/27 06:50:47;;;;;;;4.97;2.55;;;-2.20;88.20;;;;;;4924617;29;20373;-87
2020/12/27 06:53:39;;;;;;;12.23;4.90;;;-2.30;86.80;;;;;;4970200;28;20039;-91
2020/12/27 06:56:05;;;;;;;8.13;3.60;;;-2.30;86.80;;;;;;4972013;28;20093;-91
2020/12/27 06:58:31;;;;;;;10.52;4.15;;;-2.30;86.80;;;;;;4973301;28;20014;-88
2020/12/27 07:01:14;;;;;;;10.55;4.00;;;-2.30;87.00;;;;;;4982478;28;20114;-91
2020/12/27 07:03:41;;;;;;;5.97;2.03;;;-2.30;87.30;;;;;;4972874;28;20463;-90
2020/12/27 07:06:25;;;;;;;9.38;3.75;;;-2.20;87.20;;;;;;4979124;28;20337;-89
2020/12/27 07:08:57;;;;;;;8.00;3.20;;;-2.20;87.90;;;;;;4979787;28;20031;-88
2020/12/27 07:11:29;;;;;;;8.07;3.72;;;-2.10;87.30;;;;;;4974625;28;20552;-90
2020/12/27 07:13:56;;;;;;;8.85;3.42;;;-2.10;87.10;;;;;;4975984;28;20022;-90
2020/12/27 07:16:32;;;;;;;3.38;1.73;;;-2.10;86.90;;;;;;4960994;28;20035;-90
2020/12/27 07:19:03;;;;;;;7.72;3.00;;;-2.10;86.90;;;;;;4992257;28;20026;-89
2020/12/27 07:21:30;;;;;;;7.22;3.22;;;-2.10;87.00;;;;;;4983082;28;20402;-89
2020/12/27 07:24:05;;;;;;;9.40;3.70;;;-2.10;87.00;;;;;;4977134;28;20045;-90
2020/12/27 07:26:33;;;;;;;;;;;-2.00;87.10;;;;;;4992728;28;20058;-88
2020/12/27 07:29:06;;;;;;;6.88;2.92;;;-2.10;86.90;;;;;;4977033;28;19918;-87
2020/12/27 07:31:34;;;;;;;7.03;2.78;;;-2.00;86.90;;;;;;4980284;28;20077;-89
2020/12/27 07:34:00;;;;;;;8.40;3.10;;;-2.10;87.00;;;;;;4982308;28;20474;-90
2020/12/27 07:36:26;;;;;;;10.75;3.95;;;-2.00;87.10;;;;;;4976884;28;20497;-85
2020/12/27 07:39:03;;;;;;;7.82;3.83;;;-2.00;87.00;;;;;;4975426;28;20018;-89
2020/12/27 07:41:37;;;;;;;8.73;3.67;;;-2.00;87.00;;;;;;4980187;28;20029;-90
2020/12/27 07:44:09;;;;;;;8.38;3.10;;;-2.00;87.10;;;;;;4995286;28;20023;-88
2020/12/27 07:46:35;;;;;;;8.48;3.40;;;-1.90;87.20;;;;;;5002203;28;20030;-96
2020/12/27 07:49:01;;;;;;;6.78;2.92;;;-1.90;87.20;;;;;;4977375;28;20045;-90
2020/12/27 07:51:27;;;;;;;8.95;3.28;;;-1.80;87.20;;;;;;4980855;28;20027;-91
2020/12/27 07:53:55;;;;;;;7.82;2.97;;;-1.80;87.10;;;;;;4987202;28;20034;-90
2020/12/27 07:56:25;;;;;;;5.00;2.35;;;-1.80;87.30;;;;;;4981446;28;20042;-91
2020/12/27 07:58:59;;;;;;;8.77;2.17;;;-1.80;87.40;;;;;;4980323;28;20027;-90
2020/12/27 08:01:25;;;;;;;5.13;2.58;;;-1.60;88.20;;;;;;4992479;28;20505;-91
2020/12/27 08:03:59;;;;;;;12.48;5.43;;;-1.40;88.50;;;;;;4998712;28;20019;-91
2020/12/27 08:06:28;;;;;;;11.75;4.55;;;-1.30;88.00;;;;;;4984748;28;20031;-88
2020/12/27 08:09:04;;;;;;;10.77;3.47;;;-1.30;87.50;;;;;;4982329;28;20026;-88
2020/12/27 08:11:32;;;;;;;7.18;3.63;;;-1.30;87.50;;;;;;4995404;28;20058;-88
2020/12/27 08:14:06;;;;;;;9.30;3.50;;;-1.20;87.70;;;;;;4977215;28;20396;-91
2020/12/27 08:16:32;;;;;;;12.20;3.55;;;-1.20;87.60;;;;;;4982798;28;20130;-93
2020/12/27 08:19:13;;;;;;;7.78;3.00;;;-1.10;87.60;;;;;;4974584;28;20091;-88
2020/12/27 08:21:43;;;;;;;8.13;3.38;;;-1.00;87.80;;;;;;4984508;28;20042;-89
2020/12/27 08:24:18;;;;;;;2.60;2.05;;;-1.00;87.60;;;;;;4972424;28;20030;-90
2020/12/27 08:26:46;;;;;;;10.48;3.60;;;-0.90;87.50;;;;;;4979582;28;20054;-89
2020/12/27 08:29:23;;;;;;;9.32;3.28;;;-0.90;87.60;;;;;;4981212;28;20027;-88
2020/12/27 08:31:51;;;;;;;8.68;3.17;;;-0.80;87.70;;;;;;4979718;28;20027;-90
2020/12/27 08:34:19;;;;;;;10.50;3.60;;;-0.80;87.60;;;;;;4983094;28;20618;-90
2020/12/27 08:36:47;;;;;;;8.73;3.17;;;-0.70;87.60;;;;;;4997126;28;20045;-88
2020/12/27 08:39:16;;;;;;;9.40;3.38;;;-0.70;87.60;;;;;;4981643;28;20022;-89
2020/12/27 08:42:05;;;;;;;12.02;3.92;;;-0.60;87.60;;;;;;4995177;28;20023;-89
2020/12/27 08:44:37;;;;;;;8.18;3.10;;;-0.60;87.60;;;;;;4982050;28;20019;-91
2020/12/27 08:47:04;;;;;;;9.23;3.03;;;-0.50;87.70;;;;;;5000527;28;20034;-91
2020/12/27 08:49:48;;;;;;;9.25;3.60;;;-0.50;87.70;;;;;;4975821;28;20106;-90
2020/12/27 08:52:19;;;;;;;7.22;2.92;;;-0.40;87.70;;;;;;4974616;28;20033;-90
2020/12/27 08:54:51;;;;;;;9.02;3.60;;;-0.30;87.80;;;;;;4974584;28;20015;-89
2020/12/27 08:57:17;;;;;;;11.85;4.05;;;-0.30;87.80;;;;;;4994939;28;20039;-89
2020/12/27 09:00:04;;;;;;;11.50;4.18;;;-0.20;87.90;;;;;;4996435;28;20117;-88
2020/12/27 09:02:29;;;;;;;8.18;2.90;;;-0.20;87.80;;;;;;4974672;28;20050;-92
2020/12/27 09:05:12;;;;;;;7.82;3.35;;;-0.10;87.80;;;;;;4974621;28;20073;-91
2020/12/27 09:07:43;;;;;;;11.55;4.13;;;-0.10;87.90;;;;;;4970174;28;20037;-89
2020/12/27 09:10:33;;;;;;;9.00;3.05;;;0.00;88.00;;;;;;4974239;28;20081;-89
2020/12/27 09:13:07;;;;;;;10.98;3.63;;;0.10;88.00;;;;;;4974126;28;20113;-89
2020/12/27 09:15:47;;;;;;;8.65;3.72;;;0.20;88.30;;;;;;4973873;28;20027;-90
2020/12/27 09:18:26;;;;;;;7.07;3.22;;;0.30;88.30;;;;;;4972146;28;20019;-90
2020/12/27 09:20:58;;;;;;;9.20;3.40;;;0.40;88.30;;;;;;4975338;28;20090;-89
2020/12/27 09:23:24;;;;;;;7.05;3.15;;;0.50;88.40;;;;;;4972956;28;20034;-89
2020/12/27 09:26:06;;;;;;;8.98;3.17;;;0.60;88.30;;;;;;4998101;28;20031;-94
2020/12/27 09:28:33;;;;;;;7.10;2.97;;;0.70;88.40;;;;;;4976624;28;20081;-92
2020/12/27 09:31:00;;;;;;;10.05;3.35;;;0.70;88.90;;;;;;4957946;28;20030;-89
2020/12/27 09:33:28;;;;;;;7.63;2.83;;;0.80;88.10;;;;;;4989632;28;20114;-88
2020/12/27 09:35:55;;;;;;;7.70;2.85;;;0.80;87.80;;;;;;4958722;28;20039;-89
2020/12/27 09:38:24;;;;;;;5.70;2.53;;;0.90;88.10;;;;;;4973321;28;20414;-89
2020/12/27 09:41:02;;;;;;;11.52;3.50;;;0.90;88.00;;;;;;4973483;28;20019;-89
2020/12/27 09:43:27;;;;;;;5.43;2.42;;;1.00;88.30;;;;;;4974585;28;20519;-89
2020/12/27 09:45:53;;;;;;;9.15;3.22;;;1.00;88.10;;;;;;4973158;28;20034;-89
2020/12/27 09:48:19;;;;;;;5.53;2.40;;;1.10;88.20;;;;;;4977162;28;20455;-89
2020/12/27 09:50:44;;;;;;;6.35;2.67;;;1.20;88.20;;;;;;4975970;28;20027;-89
2020/12/27 09:53:17;;;;;;;5.22;2.30;;;1.20;88.40;;;;;;4992559;28;20034;-90
2020/12/27 09:55:43;;;;;;;6.30;2.63;;;1.30;88.50;;;;;;4974362;28;20018;-90
2020/12/27 09:58:12;;;;;;;6.25;2.58;;;1.40;88.50;;;;;;4972349;28;20173;-90
2020/12/27 10:00:38;;;;;;;9.40;3.13;;;1.50;88.50;;;;;;4973013;28;20080;-88
2020/12/27 10:03:04;;;;;;;7.38;3.03;;;1.60;88.90;;;;;;4991661;28;20031;-90
2020/12/27 10:05:30;;;;;;;7.80;3.13;;;1.70;88.60;;;;;;4975530;28;20038;-90
2020/12/27 10:07:55;;;;;;;6.50;2.60;;;1.70;88.40;;;;;;4972381;28;20023;-89
2020/12/27 10:10:21;;;;;;;5.05;1.90;;;1.80;88.50;;;;;;4990989;28;20086;-90
2020/12/27 10:12:46;;;;;;;7.45;2.88;;;1.90;88.50;;;;;;4974041;28;20026;-89
2020/12/27 10:15:12;;;;;;;7.70;2.88;;;2.00;88.60;;;;;;4975486;28;20031;-92
2020/12/27 10:17:38;;;;;;;5.80;2.45;;;2.10;88.70;;;;;;4974496;28;20026;-90
2020/12/27 10:20:10;;;;;;;5.70;2.53;;;2.10;88.40;;;;;;4976365;28;20050;-89
2020/12/27 10:22:36;;;;;;;7.57;2.50;;;2.30;88.50;;;;;;4971973;28;20109;-89
2020/12/27 10:25:02;;;;;;;5.88;2.60;;;2.30;88.70;;;;;;4972884;28;20033;-89
2020/12/27 10:27:32;;;;;;;6.55;2.65;;;2.40;88.50;;;;;;4973470;28;20058;-89
2020/12/27 10:30:02;;;;;;;6.85;2.47;;;2.40;88.40;;;;;;4974124;28;20061;-88
2020/12/27 10:32:28;;;;;;;6.28;2.80;;;2.50;88.30;;;;;;4972767;28;20019;-88
2020/12/27 10:34:54;;;;;;;8.25;3.03;;;2.60;88.40;;;;;;4974460;28;20038;-89
2020/12/27 10:37:19;;;;;;;7.15;2.95;;;2.70;88.60;;;;;;4957681;28;20081;-90
2020/12/27 10:39:45;;;;;;;6.60;2.47;;;2.70;88.60;;;;;;4962600;28;20415;-90
2020/12/27 10:42:11;;;;;;;5.80;2.47;;;2.80;88.40;;;;;;4978068;28;20438;-90
2020/12/27 10:44:36;;;;;;;6.43;2.50;;;2.80;88.30;;;;;;4972545;28;20041;-89
2020/12/27 10:47:02;;;;;;;7.45;2.78;;;2.90;88.50;;;;;;4976569;28;20027;-90
2020/12/27 10:49:27;;;;;;;6.00;2.55;;;3.00;88.40;;;;;;4991216;28;20031;-89
2020/12/27 10:51:53;;;;;;;6.13;2.42;;;3.00;88.30;;;;;;4974998;28;20046;-89
2020/12/27 10:54:19;;;;;;;6.35;2.33;;;3.10;88.30;;;;;;4972724;28;20590;-89
2020/12/27 10:56:45;;;;;;;6.95;2.38;;;3.10;88.40;;;;;;4957830;28;20125;-93
2020/12/27 10:59:11;;;;;;;5.47;2.28;;;3.20;88.30;;;;;;4978126;28;20027;-93
2020/12/27 11:01:48;;;;;;;6.50;2.70;;;3.30;88.50;;;;;;4977730;28;20509;-91
2020/12/27 11:04:14;;;;;;;6.75;2.55;;;3.30;88.70;;;;;;4972483;28;20505;-91
2020/12/27 11:06:40;;;;;;;3.10;1.77;;;3.30;88.30;;;;;;4977708;28;20101;-90
2020/12/27 11:09:06;;;;;;;5.85;2.08;;;3.40;88.30;;;;;;4980419;28;20031;-91
2020/12/27 11:11:32;;;;;;;5.28;2.45;;;3.50;88.30;;;;;;4977792;28;20396;-92
2020/12/27 11:13:57;;;;;;;5.18;2.20;;;3.50;88.40;;;;;;4972782;28;20107;-91
2020/12/27 11:16:24;;;;;;;6.80;2.38;;;3.60;88.00;;;;;;4972785;28;20085;-91
2020/12/27 11:18:50;;;;;;;4.00;2.10;;;3.60;88.40;;;;;;4972728;28;20115;-90
2020/12/27 11:21:15;;;;;;;8.35;3.00;;;3.70;88.10;;;;;;4956705;28;20624;-91
2020/12/27 11:23:41;;;;;;;6.88;2.45;;;3.70;88.20;;;;;;4976607;28;20117;-91
2020/12/27 11:26:06;;;;;;;6.53;2.45;;;3.70;88.10;;;;;;4977384;28;20382;-90
2020/12/27 11:28:32;;;;;;;5.90;2.63;;;3.70;87.80;;;;;;4972529;28;20087;-91
2020/12/27 11:30:58;;;;;;;6.40;2.63;;;3.80;88.00;;;;;;4985322;28;20079;-91
2020/12/27 11:33:23;;;;;;;5.63;2.35;;;3.80;87.60;;;;;;4988799;28;20475;-91
2020/12/27 11:35:49;;;;;;;17.02;7.75;;;3.80;87.90;;;;;;4982169;28;20027;-90
2020/12/27 11:38:15;;;;;;;7.68;2.97;;;3.80;87.90;;;;;;4956337;28;20031;-91
2020/12/27 11:40:41;;;;;;;6.50;2.75;;;3.80;87.90;;;;;;4993658;28;20027;-91
2020/12/27 11:43:06;;;;;;;6.47;2.67;;;3.90;87.90;;;;;;4972251;28;20502;-90
2020/12/27 11:45:32;;;;;;;6.15;2.72;;;4.00;87.90;;;;;;4974772;28;20126;-87
2020/12/27 11:47:57;;;;;;;7.22;3.03;;;3.90;87.90;;;;;;4971812;28;20023;-94
2020/12/27 11:50:23;;;;;;;5.95;2.90;;;4.00;87.80;;;;;;4962745;28;20029;-90
2020/12/27 11:52:49;;;;;;;7.00;2.83;;;4.00;87.80;;;;;;4960702;28;20534;-91
2020/12/27 11:55:14;;;;;;;6.22;2.47;;;4.00;87.40;;;;;;4978621;28;20051;-90
2020/12/27 11:57:41;;;;;;;6.97;2.95;;;4.00;88.50;;;;;;4975243;28;20066;-89
2020/12/27 12:00:06;;;;;;;7.07;3.00;;;4.10;88.00;;;;;;4986592;28;20031;-90
2020/12/27 12:02:32;;;;;;;7.53;3.00;;;4.10;87.40;;;;;;4981138;28;20043;-89
2020/12/27 12:04:58;;;;;;;9.63;3.90;;;4.10;87.50;;;;;;4981915;28;20038;-89
2020/12/27 12:07:23;;;;;;;7.57;2.88;;;4.10;87.50;;;;;;4987287;28;20039;-91
2020/12/27 12:09:49;;;;;;;5.28;2.30;;;4.10;87.30;;;;;;4973716;28;20451;-91
2020/12/27 12:12:15;;;;;;;7.55;3.00;;;4.00;86.80;;;;;;4979023;28;20081;-92
2020/12/27 12:14:40;;;;;;;7.43;2.88;;;4.00;87.00;;;;;;4981700;28;20061;-90
2020/12/27 12:17:07;;;;;;;5.93;2.80;;;3.90;86.60;;;;;;4983958;28;20463;-91
2020/12/27 12:19:33;;;;;;;5.68;2.78;;;3.90;86.90;;;;;;4979223;28;20038;-91
2020/12/27 12:21:58;;;;;;;6.47;2.95;;;3.80;86.80;;;;;;4975532;28;20042;-91
2020/12/27 12:24:24;;;;;;;7.80;2.53;;;3.80;87.00;;;;;;4959786;28;20027;-91
2020/12/27 12:26:50;;;;;;;9.20;3.17;;;3.80;87.10;;;;;;4981073;28;20387;-91
2020/12/27 12:29:15;;;;;;;5.82;2.38;;;3.70;86.90;;;;;;4959123;28;20023;-90
2020/12/27 12:31:41;;;;;;;7.00;3.10;;;3.80;87.40;;;;;;4984800;28;20030;-91
2020/12/27 12:34:08;;;;;;;8.80;3.55;;;3.80;87.30;;;;;;4977618;28;20023;-91
2020/12/27 12:36:34;;;;;;;9.45;2.97;;;3.80;87.20;;;;;;4978821;28;20035;-91
2020/12/27 12:38:59;;;;;;;7.43;3.50;;;3.80;87.10;;;;;;4976755;28;20027;-90
2020/12/27 12:41:26;;;;;;;8.43;3.17;;;3.80;87.30;;;;;;4975721;28;20039;-91
2020/12/27 12:43:53;;;;;;;8.50;3.22;;;3.80;87.10;;;;;;4976607;28;20026;-90
2020/12/27 12:46:21;;;;;;;6.57;2.55;;;3.80;87.00;;;;;;4976294;28;20033;-90
2020/12/27 12:48:47;;;;;;;7.57;2.75;;;3.80;86.70;;;;;;4976248;28;20375;-91
2020/12/27 12:51:12;;;;;;;16.80;6.80;;;3.80;86.90;;;;;;4991186;28;20026;-90
2020/12/27 12:53:40;;;;;;;7.18;3.10;;;3.70;86.50;;;;;;4978498;28;20038;-90
2020/12/27 12:56:09;;;;;;;6.72;3.15;;;4.10;86.80;;;;;;4965266;28;20045;-89